Time;durP1;ratioP1;P1;durP2;ratioP2;P2;SDS_P1;SDS_P2;PMS_P1;PMS_P2;Temp;Humidity;BMP_temperature;BMP_pressure;BME280_temperature;BME280_humidity;BME280_pressure;Samples;Min_cycle;Max_cycle;Signal;HPM_P1;HPM_P2
2024/04/07 00:02:22;;;;;;;2.25;1.42;;;17.30;1.00;;;;;;5013261;28;20524;-81
2024/04/07 00:05:08;;;;;;;2.78;1.33;;;17.10;1.00;;;;;;5013681;28;20056;-83
2024/04/07 00:07:55;;;;;;;2.75;1.50;;;16.80;1.00;;;;;;5012785;28;20044;-83
2024/04/07 00:10:43;;;;;;;4.35;1.60;;;16.90;1.00;;;;;;5000384;28;20068;-82
2024/04/07 00:13:31;;;;;;;3.97;1.73;;;17.00;1.00;;;;;;5013175;28;20045;-82
2024/04/07 00:16:19;;;;;;;2.72;1.60;;;17.00;1.00;;;;;;5012331;28;20045;-83
2024/04/07 00:19:07;;;;;;;3.15;1.38;;;17.10;1.00;;;;;;5000439;28;20045;-82
2024/04/07 00:21:54;;;;;;;5.05;1.50;;;17.10;1.00;;;;;;5006248;28;20534;-84
2024/04/07 00:24:42;;;;;;;1.73;1.20;;;17.10;1.00;;;;;;5021244;28;20719;-82
2024/04/07 00:27:29;;;;;;;2.45;1.65;;;17.10;1.00;;;;;;5011752;28;20072;-83
2024/04/07 00:30:15;;;;;;;1.48;1.20;;;17.20;1.00;;;;;;5022617;28;20041;-83
2024/04/07 00:33:02;;;;;;;3.28;1.27;;;17.20;1.00;;;;;;5016726;28;20144;-85
2024/04/07 00:35:55;;;;;;;2.50;1.25;;;17.10;1.00;;;;;;5005745;28;20046;-84
2024/04/07 00:38:42;;;;;;;3.60;1.50;;;17.10;1.00;;;;;;5004941;28;20053;-87
2024/04/07 00:41:29;;;;;;;2.97;1.40;;;17.10;1.00;;;;;;5013785;28;20059;-84
2024/04/07 00:44:15;;;;;;;2.35;1.35;;;17.20;1.00;;;;;;5014700;28;20593;-83
2024/04/07 00:47:01;;;;;;;3.03;1.48;;;17.10;1.00;;;;;;5011971;28;20056;-83
2024/04/07 00:49:48;;;;;;;4.95;1.75;;;16.90;1.00;;;;;;5013242;28;20091;-83
2024/04/07 00:52:35;;;;;;;1.50;1.40;;;16.80;1.00;;;;;;5011916;28;20042;-82
2024/04/07 00:55:22;;;;;;;4.32;1.40;;;16.80;1.00;;;;;;5011730;28;20048;-81
2024/04/07 00:58:10;;;;;;;1.52;1.15;;;16.80;1.00;;;;;;5013097;28;20049;-80
2024/04/07 01:00:57;;;;;;;3.92;1.63;;;16.60;1.00;;;;;;5011496;28;20044;-85
2024/04/07 01:03:43;;;;;;;2.22;1.40;;;16.60;1.00;;;;;;5021385;28;20105;-82
2024/04/07 01:06:31;;;;;;;3.38;1.48;;;16.60;1.00;;;;;;5009691;28;20140;-81
2024/04/07 01:09:19;;;;;;;12.35;1.73;;;16.70;1.00;;;;;;5006258;28;20055;-82
2024/04/07 01:12:15;;;;;;;2.83;1.50;;;16.70;1.00;;;;;;5015818;28;20157;-83
2024/04/07 01:15:03;;;;;;;2.75;1.40;;;16.80;1.00;;;;;;5007337;28;20151;-83
2024/04/07 01:17:50;;;;;;;3.80;1.70;;;16.80;1.00;;;;;;5004666;28;20046;-84
2024/04/07 01:20:37;;;;;;;2.83;1.50;;;16.90;1.00;;;;;;5012403;28;20469;-83
2024/04/07 01:23:27;;;;;;;1.98;1.40;;;16.90;1.00;;;;;;5011710;28;20045;-85
2024/04/07 01:26:13;;;;;;;2.28;1.15;;;17.00;1.00;;;;;;5011212;28;20060;-82
2024/04/07 01:29:00;;;;;;;3.10;1.10;;;17.00;1.00;;;;;;5012069;28;20045;-82
2024/04/07 01:31:47;;;;;;;2.35;1.38;;;17.00;1.00;;;;;;5012306;28;20063;-83
2024/04/07 01:34:33;;;;;;;6.50;1.23;;;17.10;1.00;;;;;;5013455;28;20755;-84
2024/04/07 01:37:21;;;;;;;4.15;1.27;;;17.00;1.00;;;;;;4998761;28;20128;-82
2024/04/07 01:40:09;;;;;;;2.50;1.20;;;17.10;1.00;;;;;;5013792;28;20037;-84
2024/04/07 01:42:58;;;;;;;3.83;1.25;;;17.20;1.00;;;;;;5018155;28;20041;-80
2024/04/07 01:45:44;;;;;;;1.70;1.23;;;17.30;1.00;;;;;;5001502;28;20059;-81
2024/04/07 01:48:31;;;;;;;3.33;1.38;;;17.40;1.00;;;;;;5009743;28;20140;-81
2024/04/07 01:51:19;;;;;;;3.78;1.30;;;17.40;1.00;;;;;;5024667;28;20038;-84
2024/04/07 01:54:05;;;;;;;3.58;1.52;;;17.40;1.00;;;;;;5016947;28;20461;-82
2024/04/07 01:56:52;;;;;;;5.32;1.67;;;17.40;1.00;;;;;;5013874;28;20056;-86
2024/04/07 01:59:39;;;;;;;6.90;1.60;;;17.40;1.00;;;;;;5012371;28;20049;-85
2024/04/07 02:02:25;;;;;;;2.33;1.30;;;17.20;1.00;;;;;;5010981;28;20055;-82
2024/04/07 02:05:11;;;;;;;4.72;1.48;;;17.20;1.00;;;;;;5011460;28;20049;-82
2024/04/07 02:07:59;;;;;;;2.10;1.30;;;17.20;1.00;;;;;;5005039;28;20136;-84
2024/04/07 02:10:52;;;;;;;3.35;1.20;;;17.20;1.00;;;;;;4999146;28;20041;-85
2024/04/07 02:13:38;;;;;;;1.48;1.13;;;17.30;1.00;;;;;;4999747;28;20482;-84
2024/04/07 02:16:25;;;;;;;5.82;1.20;;;17.30;1.00;;;;;;4995936;28;20041;-84
2024/04/07 02:19:13;;;;;;;1.65;1.17;;;17.40;1.00;;;;;;5011045;28;20053;-79
2024/04/07 02:21:59;;;;;;;3.15;1.60;;;17.40;1.00;;;;;;5014945;28;20056;-83
2024/04/07 02:24:46;;;;;;;3.03;1.40;;;17.50;1.00;;;;;;5011922;28;20049;-82
2024/04/07 02:27:33;;;;;;;1.40;0.93;;;17.60;1.00;;;;;;5002070;28;20041;-83
2024/04/07 02:30:19;;;;;;;2.67;1.00;;;17.80;1.00;;;;;;5020325;28;20703;-83
2024/04/07 02:33:06;;;;;;;3.03;1.30;;;17.90;1.00;;;;;;5011908;28;20528;-83
2024/04/07 02:35:58;;;;;;;1.88;1.15;;;18.00;1.00;;;;;;5009524;28;20053;-86
2024/04/07 02:38:45;;;;;;;1.55;1.13;;;18.00;1.00;;;;;;5009807;28;20049;-84
2024/04/07 02:41:31;;;;;;;1.95;1.00;;;18.10;1.00;;;;;;5008976;28;20052;-83
2024/04/07 02:48:03;;;;;;;2.40;1.27;;;18.10;1.00;;;;;;5013985;28;20051;-83
2024/04/07 02:50:30;;;;;;;5.78;1.17;;;18.30;1.00;;;;;;5014131;28;20571;-82
2024/04/07 02:53:16;;;;;;;4.95;1.23;;;18.30;1.00;;;;;;4999260;28;20079;-84
2024/04/07 02:56:03;;;;;;;3.70;1.00;;;18.30;1.00;;;;;;5008092;28;20045;-83
2024/04/07 02:58:49;;;;;;;3.45;1.30;;;18.30;1.00;;;;;;5002075;28;20034;-83
2024/04/07 03:01:36;;;;;;;2.50;1.05;;;18.40;1.00;;;;;;5032734;28;20068;-83
2024/04/07 03:04:23;;;;;;;2.15;1.42;;;18.40;1.00;;;;;;5030936;28;20377;-82
2024/04/07 03:07:09;;;;;;;2.80;1.27;;;18.40;1.00;;;;;;5030468;28;20079;-79
2024/04/07 03:09:57;;;;;;;1.65;1.02;;;18.40;1.00;;;;;;5032148;28;20100;-81
2024/04/07 03:12:44;;;;;;;4.10;1.42;;;18.50;1.00;;;;;;5038746;28;20052;-83
2024/04/07 03:15:31;;;;;;;2.45;1.20;;;18.50;1.00;;;;;;5025476;28;20669;-85
2024/04/07 03:18:19;;;;;;;5.30;1.60;;;18.50;1.00;;;;;;5017093;28;20045;-84
2024/04/07 03:21:06;;;;;;;2.42;1.15;;;18.60;1.00;;;;;;5033390;28;20042;-82
2024/04/07 03:23:53;;;;;;;3.17;1.20;;;18.50;1.00;;;;;;5000566;28;20049;-83
2024/04/07 03:26:39;;;;;;;4.47;1.20;;;18.40;1.00;;;;;;5016073;28;20409;-83
2024/04/07 03:29:26;;;;;;;2.67;1.30;;;18.20;1.00;;;;;;5005501;28;20045;-86
2024/04/07 03:32:12;;;;;;;4.95;1.20;;;18.10;1.00;;;;;;5023288;28;20108;-82
2024/04/07 03:34:59;;;;;;;3.67;1.38;;;17.90;1.00;;;;;;5015254;28;20052;-84
2024/04/07 03:37:45;;;;;;;1.42;1.10;;;17.60;1.00;;;;;;5000816;28;20049;-85
2024/04/07 03:40:31;;;;;;;2.80;1.05;;;17.40;1.00;;;;;;5014764;28;20510;-86
2024/04/07 03:43:18;;;;;;;2.28;1.15;;;17.40;1.00;;;;;;5020370;28;20076;-81
2024/04/07 03:46:05;;;;;;;3.45;1.35;;;17.70;1.00;;;;;;5019115;28;20042;-81
2024/04/07 03:48:55;;;;;;;1.83;1.20;;;17.60;1.00;;;;;;5011838;28;20121;-84
2024/04/07 03:51:42;;;;;;;3.38;1.08;;;17.60;1.00;;;;;;5013490;28;20047;-84
2024/04/07 03:54:29;;;;;;;5.88;1.27;;;17.60;1.00;;;;;;5019876;28;20045;-83
2024/04/07 03:57:15;;;;;;;4.18;1.17;;;17.60;1.00;;;;;;5015630;28;20060;-82
2024/04/07 04:00:04;;;;;;;2.92;1.13;;;17.60;1.00;;;;;;5010317;28;20044;-82
2024/04/07 04:02:51;;;;;;;3.65;1.45;;;17.50;1.00;;;;;;5005634;28;20045;-81
2024/04/07 04:05:38;;;;;;;2.83;1.40;;;17.30;1.00;;;;;;5011660;28;20041;-81
2024/04/07 04:08:25;;;;;;;4.53;1.48;;;17.10;1.00;;;;;;5009059;28;20046;-82
2024/04/07 04:11:11;;;;;;;3.88;1.13;;;16.90;1.00;;;;;;5009377;28;20052;-82
2024/04/07 04:13:59;;;;;;;3.30;1.45;;;16.80;1.00;;;;;;4997524;28;20037;-82
2024/04/07 04:16:46;;;;;;;2.05;1.48;;;16.70;1.00;;;;;;5012052;28;20096;-84
2024/04/07 04:19:33;;;;;;;5.05;1.65;;;16.70;1.00;;;;;;5013062;28;20049;-84
2024/04/07 04:22:20;;;;;;;3.33;1.45;;;16.60;1.00;;;;;;5013566;28;20049;-84
2024/04/07 04:25:06;;;;;;;2.65;1.20;;;16.50;1.00;;;;;;5017011;28;20053;-78
2024/04/07 04:27:53;;;;;;;1.63;1.20;;;16.40;1.00;;;;;;5007230;28;20041;-84
2024/04/07 04:30:39;;;;;;;6.55;1.20;;;16.40;1.00;;;;;;4999632;28;20046;-84
2024/04/07 04:33:28;;;;;;;2.47;1.15;;;16.30;1.00;;;;;;5021423;28;20115;-84
2024/04/07 04:36:15;;;;;;;3.88;1.48;;;16.20;1.00;;;;;;5021314;28;20565;-84
2024/04/07 04:39:04;;;;;;;2.47;1.30;;;16.20;1.00;;;;;;5000203;28;20052;-85
2024/04/07 04:41:53;;;;;;;3.30;1.42;;;16.10;1.00;;;;;;5013237;28;20053;-85
2024/04/07 04:44:39;;;;;;;3.95;1.45;;;16.20;1.00;;;;;;5013048;28;20514;-85
2024/04/07 04:47:26;;;;;;;2.83;1.70;;;16.00;1.00;;;;;;5013573;28;20041;-84
2024/04/07 04:50:13;;;;;;;2.25;1.52;;;15.90;1.00;;;;;;5000264;28;20075;-83
2024/04/07 04:52:59;;;;;;;2.58;1.23;;;15.80;1.00;;;;;;4995234;28;20037;-82
2024/04/07 04:55:46;;;;;;;3.72;1.42;;;15.70;1.00;;;;;;5012547;28;20077;-82
2024/04/07 04:58:34;;;;;;;6.47;1.48;;;15.60;1.00;;;;;;5012547;28;20045;-84
2024/04/07 05:01:20;;;;;;;4.60;1.60;;;15.50;1.00;;;;;;5012196;28;20057;-82
2024/04/07 05:04:07;;;;;;;2.22;1.50;;;15.30;1.00;;;;;;5012129;28;20071;-83
2024/04/07 05:06:53;;;;;;;2.95;1.50;;;15.10;1.00;;;;;;5015569;28;20045;-81
2024/04/07 05:09:40;;;;;;;4.22;1.50;;;14.90;1.00;;;;;;5007500;28;20546;-85
2024/04/07 05:12:26;;;;;;;2.65;1.45;;;14.80;1.00;;;;;;5008017;28;20045;-78
2024/04/07 05:15:13;;;;;;;3.53;1.67;;;14.70;1.00;;;;;;5021917;28;20046;-83
2024/04/07 05:18:00;;;;;;;3.60;1.55;;;14.60;1.00;;;;;;5016542;28;20550;-81
2024/04/07 05:20:47;;;;;;;3.38;1.50;;;14.50;1.00;;;;;;5012014;28;20056;-84
2024/04/07 05:23:36;;;;;;;4.53;1.80;;;14.50;1.00;;;;;;4998861;28;20057;-85
2024/04/07 05:26:22;;;;;;;4.57;1.48;;;14.50;1.00;;;;;;4998771;28;20049;-85
2024/04/07 05:29:09;;;;;;;7.25;1.52;;;14.70;1.00;;;;;;4999848;28;20510;-84
2024/04/07 05:31:56;;;;;;;9.00;1.67;;;14.80;1.00;;;;;;5013698;28;20371;-84
2024/04/07 05:34:45;;;;;;;7.07;2.20;;;15.20;1.00;;;;;;5001378;28;20059;-82
2024/04/07 05:37:31;;;;;;;4.47;1.80;;;15.70;1.00;;;;;;5011893;28;20037;-84
2024/04/07 05:40:18;;;;;;;3.53;1.50;;;16.00;1.00;;;;;;4999373;28;20041;-84
2024/04/07 05:43:06;;;;;;;5.72;1.40;;;16.10;1.00;;;;;;4992075;28;20045;-83
2024/04/07 05:45:53;;;;;;;4.50;1.75;;;16.30;1.00;;;;;;5012170;28;20051;-80
2024/04/07 05:48:40;;;;;;;4.43;1.80;;;16.30;1.00;;;;;;5019893;28;20095;-82
2024/04/07 05:51:26;;;;;;;4.40;1.63;;;16.40;1.00;;;;;;4993421;28;20549;-85
2024/04/07 05:54:12;;;;;;;5.05;1.63;;;16.50;1.00;;;;;;5021585;28;20064;-83
2024/04/07 05:56:59;;;;;;;6.18;1.52;;;16.60;1.00;;;;;;5012457;28;20120;-83
2024/04/07 05:59:49;;;;;;;4.13;1.52;;;16.70;1.00;;;;;;5013011;28;20045;-82
2024/04/07 06:02:36;;;;;;;6.32;1.85;;;16.80;1.00;;;;;;5014902;28;20045;-82
2024/04/07 06:05:22;;;;;;;6.47;1.92;;;16.90;1.00;;;;;;5018629;28;20494;-82
2024/04/07 06:08:09;;;;;;;4.05;1.90;;;17.00;1.00;;;;;;5013700;28;20042;-82
2024/04/07 06:10:56;;;;;;;3.63;1.48;;;17.10;1.00;;;;;;5006478;28;20044;-85
2024/04/07 06:13:43;;;;;;;8.02;2.30;;;17.10;1.00;;;;;;4999124;28;20048;-85
2024/04/07 06:16:29;;;;;;;3.78;1.42;;;17.10;1.00;;;;;;5009443;28;20041;-84
2024/04/07 06:19:16;;;;;;;4.05;1.70;;;17.10;1.00;;;;;;5001353;28;20730;-84
2024/04/07 06:22:03;;;;;;;9.95;1.80;;;17.20;1.00;;;;;;5014664;28;20506;-85
2024/04/07 06:24:50;;;;;;;8.48;1.88;;;17.20;1.00;;;;;;5020884;28;20045;-81
2024/04/07 06:27:36;;;;;;;8.45;1.77;;;17.20;1.00;;;;;;5038747;28;20089;-85
2024/04/07 06:30:23;;;;;;;8.77;2.42;;;17.20;1.00;;;;;;5028077;28;20113;-84
2024/04/07 06:33:10;;;;;;;5.80;1.85;;;17.30;1.00;;;;;;5042248;28;20056;-82
2024/04/07 06:35:58;;;;;;;6.35;1.90;;;17.30;1.00;;;;;;5011705;28;20044;-85
2024/04/07 06:38:45;;;;;;;5.88;1.80;;;17.40;1.00;;;;;;5010078;28;20391;-82
2024/04/07 06:41:32;;;;;;;5.38;2.05;;;17.30;1.00;;;;;;5019431;28;20405;-85
2024/04/07 06:44:18;;;;;;;9.57;2.08;;;17.40;1.00;;;;;;5015081;28;20050;-84
2024/04/07 06:47:06;;;;;;;6.47;1.70;;;17.40;1.00;;;;;;5001609;28;20046;-83
2024/04/07 06:49:57;;;;;;;6.35;1.80;;;17.40;1.00;;;;;;5014653;28;20045;-84
2024/04/07 06:52:44;;;;;;;3.13;1.70;;;17.50;1.00;;;;;;5002083;28;20107;-84
2024/04/07 06:55:31;;;;;;;8.32;1.67;;;17.60;1.00;;;;;;5015726;28;20470;-84
2024/04/07 06:58:17;;;;;;;5.70;2.00;;;17.80;1.00;;;;;;5014339;28;20536;-84
2024/04/07 07:01:04;;;;;;;9.77;1.90;;;17.90;1.00;;;;;;4995975;28;20421;-85
2024/04/07 07:03:52;;;;;;;4.43;1.58;;;18.10;1.00;;;;;;5014010;28;20068;-83
2024/04/07 07:06:38;;;;;;;9.57;2.30;;;18.20;1.00;;;;;;5015244;28;20266;-86
2024/04/07 07:09:27;;;;;;;5.07;1.52;;;18.50;1.00;;;;;;5024059;28;20108;-86
2024/04/07 07:12:15;;;;;;;6.22;1.75;;;18.70;1.00;;;;;;5011549;28;20129;-85
2024/04/07 07:15:03;;;;;;;9.73;1.80;;;18.90;1.00;;;;;;5019081;28;20101;-82
2024/04/07 07:17:49;;;;;;;4.45;2.10;;;19.00;1.00;;;;;;5021173;28;20051;-85
2024/04/07 07:20:36;;;;;;;8.38;2.00;;;19.00;1.00;;;;;;5014865;28;20387;-82
2024/04/07 07:23:22;;;;;;;10.75;1.92;;;18.90;1.00;;;;;;5014944;28;20056;-84
2024/04/07 07:26:10;;;;;;;5.03;1.90;;;18.90;1.00;;;;;;5013068;28;20053;-81
2024/04/07 07:28:56;;;;;;;14.63;2.67;;;19.00;1.00;;;;;;5013457;28;20048;-81
2024/04/07 07:31:43;;;;;;;9.85;2.50;;;19.20;1.00;;;;;;5014371;28;20041;-83
2024/04/07 07:34:30;;;;;;;6.20;2.00;;;19.40;1.00;;;;;;5015947;28;20699;-82
2024/04/07 07:37:17;;;;;;;13.05;2.05;;;19.40;1.00;;;;;;5001411;28;20041;-83
2024/04/07 07:40:03;;;;;;;10.73;2.40;;;19.60;1.00;;;;;;5001352;28;20045;-84
2024/04/07 07:42:50;;;;;;;11.40;2.25;;;19.70;1.00;;;;;;5006968;28;20050;-85
2024/04/07 07:45:37;;;;;;;5.00;2.10;;;19.90;1.00;;;;;;5026166;28;20054;-84
2024/04/07 07:48:24;;;;;;;11.32;2.53;;;20.20;1.00;;;;;;4992492;28;20045;-83
2024/04/07 07:51:11;;;;;;;4.78;1.60;;;20.90;1.00;;;;;;5024503;28;20120;-80
2024/04/07 07:53:58;;;;;;;11.73;2.30;;;21.20;1.00;;;;;;5015102;28;20041;-81
2024/04/07 07:56:44;;;;;;;7.68;2.55;;;21.10;1.00;;;;;;5023456;28;20046;-85
2024/04/07 07:59:32;;;;;;;11.35;2.45;;;21.20;1.00;;;;;;5015287;28;20734;-84
2024/04/07 08:02:18;;;;;;;10.57;1.98;;;21.20;1.00;;;;;;5014896;28;20053;-85
2024/04/07 08:05:05;;;;;;;15.35;4.22;;;21.20;1.00;;;;;;5001157;28;20046;-82
2024/04/07 08:07:51;;;;;;;9.57;2.50;;;21.30;1.00;;;;;;5018085;28;20041;-84
2024/04/07 08:10:38;;;;;;;9.70;2.75;;;21.50;1.00;;;;;;5018205;28;20064;-83
2024/04/07 08:13:24;;;;;;;11.05;2.60;;;21.30;1.00;;;;;;5000791;28;20042;-82
2024/04/07 08:16:11;;;;;;;11.25;2.55;;;21.40;1.00;;;;;;5014183;28;20041;-84
2024/04/07 08:18:57;;;;;;;10.35;2.28;;;21.40;1.00;;;;;;5013784;28;20049;-83
2024/04/07 08:21:45;;;;;;;10.60;2.25;;;21.60;1.00;;;;;;5021200;28;20536;-83
2024/04/07 08:24:34;;;;;;;14.82;2.00;;;21.80;1.00;;;;;;5009550;28;20054;-83
2024/04/07 08:27:21;;;;;;;8.63;2.25;;;21.80;1.00;;;;;;5023327;28;20424;-83
2024/04/07 08:30:08;;;;;;;12.32;2.05;;;22.00;1.00;;;;;;5003640;28;20144;-82
2024/04/07 08:32:55;;;;;;;12.43;3.53;;;22.20;1.00;;;;;;5013034;28;20049;-83
2024/04/07 08:35:42;;;;;;;12.07;2.92;;;22.50;1.00;;;;;;5012896;28;20053;-83
2024/04/07 08:38:29;;;;;;;9.00;2.08;;;22.70;1.00;;;;;;4998838;28;20041;-83
2024/04/07 08:41:16;;;;;;;7.65;2.40;;;22.60;1.00;;;;;;5012558;28;20041;-82
2024/04/07 08:44:03;;;;;;;11.90;2.45;;;22.50;1.00;;;;;;4994891;28;20050;-83
2024/04/07 08:46:50;;;;;;;10.40;2.17;;;22.40;1.00;;;;;;5013140;28;20517;-80
2024/04/07 08:49:37;;;;;;;15.98;2.53;;;22.30;1.00;;;;;;5011352;28;20042;-84
2024/04/07 08:52:24;;;;;;;17.38;2.15;;;22.30;1.00;;;;;;5012355;28;20502;-82
2024/04/07 08:55:11;;;;;;;11.55;3.78;;;22.30;1.00;;;;;;5011508;28;20071;-81
2024/04/07 08:57:59;;;;;;;12.52;2.42;;;22.40;1.00;;;;;;5012430;28;20049;-82
2024/04/07 09:00:51;;;;;;;9.95;2.55;;;22.80;1.00;;;;;;5020478;28;20510;-79
2024/04/07 09:03:37;;;;;;;10.25;2.25;;;23.50;1.00;;;;;;5012683;28;20517;-82
2024/04/07 09:06:26;;;;;;;9.35;2.03;;;24.00;1.00;;;;;;5021104;28;20098;-82
2024/04/07 09:09:12;;;;;;;8.05;2.20;;;24.50;1.00;;;;;;5019453;28;20054;-82
2024/04/07 09:12:01;;;;;;;6.35;1.95;;;25.20;1.00;;;;;;5011468;28;20042;-83
2024/04/07 09:14:49;;;;;;;11.80;3.15;;;25.80;1.00;;;;;;5017944;28;20103;-82
2024/04/07 09:17:36;;;;;;;9.40;2.30;;;25.90;1.00;;;;;;5012631;28;20529;-83
2024/04/07 09:20:24;;;;;;;10.70;1.75;;;26.10;1.00;;;;;;5014511;28;20042;-81
2024/04/07 09:23:11;;;;;;;10.23;2.75;;;26.10;1.00;;;;;;5014048;28;20042;-81
2024/04/07 09:25:57;;;;;;;12.23;2.50;;;26.10;1.00;;;;;;5013690;28;20046;-84
2024/04/07 09:28:44;;;;;;;7.43;2.20;;;26.10;1.00;;;;;;5009991;28;20047;-85
2024/04/07 09:31:30;;;;;;;16.25;2.00;;;26.20;1.00;;;;;;5012277;28;20576;-81
2024/04/07 09:34:16;;;;;;;7.60;1.88;;;25.70;1.00;;;;;;5012345;28;20045;-85
2024/04/07 09:37:04;;;;;;;7.22;1.67;;;25.20;1.00;;;;;;5006171;28;20041;-84
2024/04/07 09:39:51;;;;;;;6.70;1.88;;;24.60;1.00;;;;;;5013154;28;20045;-83
2024/04/07 09:42:39;;;;;;;11.63;1.92;;;24.60;1.00;;;;;;5026314;28;20055;-83
2024/04/07 09:45:26;;;;;;;31.63;9.52;;;24.50;1.00;;;;;;4967763;28;20049;-81
2024/04/07 09:48:19;;;;;;;12.10;1.75;;;24.40;1.00;;;;;;5007745;28;20050;-84
2024/04/07 09:51:06;;;;;;;12.20;2.60;;;24.60;1.00;;;;;;5003600;28;20121;-84
2024/04/07 09:54:07;;;;;;;6.80;1.70;;;25.00;1.00;;;;;;5012369;28;20050;-83
2024/04/07 09:56:54;;;;;;;8.90;2.08;;;25.80;1.00;;;;;;5021508;28;20100;-83
2024/04/07 09:59:43;;;;;;;5.78;1.80;;;26.50;1.00;;;;;;5010657;28;20041;-82
2024/04/07 10:02:31;;;;;;;7.75;2.25;;;27.00;1.00;;;;;;5013171;28;20124;-84
2024/04/07 10:05:18;;;;;;;9.82;2.10;;;27.70;1.00;;;;;;5012461;28;20454;-83
2024/04/07 10:08:05;;;;;;;9.60;1.67;;;28.00;1.00;;;;;;5012488;28;20064;-83
2024/04/07 10:10:53;;;;;;;3.92;1.50;;;28.60;1.00;;;;;;5013254;28;20045;-82
2024/04/07 10:13:39;;;;;;;9.82;1.90;;;29.40;1.00;;;;;;5011053;28;20057;-86
2024/04/07 10:16:26;;;;;;;9.23;1.83;;;30.00;1.00;;;;;;5011133;28;20046;-85
2024/04/07 10:19:15;;;;;;;7.93;1.63;;;29.70;1.00;;;;;;5013804;28;20053;-85
2024/04/07 10:22:01;;;;;;;6.72;1.73;;;29.60;1.00;;;;;;5011404;28;20050;-86
2024/04/07 10:24:52;;;;;;;9.52;2.35;;;29.40;1.00;;;;;;5016412;28;20037;-86
2024/04/07 10:27:45;;;;;;;7.07;1.90;;;29.60;1.00;;;;;;5019497;28;20052;-86
2024/04/07 10:30:34;;;;;;;11.48;1.75;;;30.60;1.00;;;;;;4998552;28;20145;-81
2024/04/07 10:33:27;;;;;;;7.25;1.40;;;30.70;1.00;;;;;;5035090;28;20046;-84
2024/04/07 10:36:16;;;;;;;5.18;1.25;;;31.00;1.00;;;;;;5017275;28;20060;-82
2024/04/07 10:39:03;;;;;;;10.05;1.60;;;30.60;1.00;;;;;;5006104;28;20045;-84
2024/04/07 10:41:50;;;;;;;6.60;1.90;;;29.50;1.00;;;;;;5010737;28;20053;-83
2024/04/07 10:44:37;;;;;;;7.57;2.17;;;28.90;1.00;;;;;;5015313;28;20109;-83
2024/04/07 10:47:24;;;;;;;8.77;1.63;;;29.00;1.00;;;;;;5011274;28;20055;-83
2024/04/07 10:50:10;;;;;;;6.63;1.63;;;28.70;1.00;;;;;;5011719;28;20052;-84
2024/04/07 10:53:06;;;;;;;14.38;2.13;;;29.00;1.00;;;;;;5016468;28;20045;-82
2024/04/07 10:55:52;;;;;;;6.32;1.80;;;29.50;1.00;;;;;;5003968;28;20051;-82
2024/04/07 10:58:39;;;;;;;10.05;2.15;;;29.90;1.00;;;;;;5000907;28;20090;-82
2024/04/07 11:01:26;;;;;;;9.10;1.67;;;30.20;1.00;;;;;;5010960;28;20045;-80
2024/04/07 11:04:13;;;;;;;7.90;1.85;;;30.00;1.00;;;;;;5030126;28;20059;-82
2024/04/07 11:07:01;;;;;;;10.77;1.77;;;29.60;99.90;;;;;;5030082;28;20097;-78
2024/04/07 11:09:48;;;;;;;6.20;1.50;;;28.70;1.00;;;;;;5040579;28;20041;-81
2024/04/07 11:12:40;;;;;;;8.38;2.03;;;28.10;1.00;;;;;;5026473;28;20060;-80
2024/04/07 11:15:28;;;;;;;11.32;1.92;;;28.40;1.00;;;;;;5010211;28;20506;-83
2024/04/07 11:18:16;;;;;;;8.35;1.88;;;29.30;1.00;;;;;;5027904;28;20132;-82
2024/04/07 11:21:03;;;;;;;6.40;1.70;;;30.60;99.90;;;;;;5020074;28;20053;-82
2024/04/07 11:23:50;;;;;;;12.07;2.10;;;31.40;99.90;;;;;;5015616;28;20049;-83
2024/04/07 11:26:37;;;;;;;14.13;2.15;;;31.70;99.90;;;;;;5014225;28;20422;-82
2024/04/07 11:29:27;;;;;;;13.10;1.98;;;32.50;99.90;;;;;;5015880;28;20042;-83
2024/04/07 11:32:14;;;;;;;11.50;1.98;;;32.40;99.90;;;;;;5003171;28;20050;-82
2024/04/07 11:35:03;;;;;;;12.70;2.30;;;32.00;99.90;;;;;;5003675;28;20054;-81
2024/04/07 11:37:49;;;;;;;6.53;2.13;;;31.40;99.90;;;;;;5016907;28;20081;-81
2024/04/07 11:40:36;;;;;;;12.80;2.55;;;31.30;99.90;;;;;;5013790;28;20038;-83
2024/04/07 11:43:23;;;;;;;9.48;2.30;;;31.70;99.90;;;;;;5012321;28;20046;-82
2024/04/07 11:46:11;;;;;;;10.60;2.50;;;31.90;99.90;;;;;;5000900;28;20056;-85
2024/04/07 11:48:57;;;;;;;8.07;1.73;;;31.70;99.90;;;;;;5008828;28;20048;-78
2024/04/07 11:51:44;;;;;;;12.23;2.13;;;32.00;99.90;;;;;;5023422;28;20041;-84
2024/04/07 11:54:30;;;;;;;12.73;1.92;;;32.60;99.90;;;;;;5009967;28;20049;-84
2024/04/07 11:57:17;;;;;;;10.95;2.13;;;32.70;1.00;;;;;;5016844;28;20133;-82
2024/04/07 12:00:05;;;;;;;9.57;1.98;;;31.60;99.90;;;;;;5022679;28;20080;-84
2024/04/07 12:02:51;;;;;;;12.43;2.55;;;29.40;99.90;;;;;;5015424;28;20485;-83
2024/04/07 12:05:39;;;;;;;5.93;1.77;;;28.20;99.90;;;;;;5013444;28;20046;-81
2024/04/07 12:08:26;;;;;;;10.95;2.20;;;27.90;99.90;;;;;;5014044;28;20433;-84
2024/04/07 12:11:13;;;;;;;10.57;3.00;;;28.80;99.90;;;;;;5002506;28;20089;-84
2024/04/07 12:13:59;;;;;;;12.68;2.40;;;28.10;99.90;;;;;;5007832;28;20041;-83
2024/04/07 12:16:46;;;;;;;8.00;1.98;;;27.90;99.90;;;;;;5005231;28;20045;-82
2024/04/07 12:19:33;;;;;;;14.57;2.67;;;28.30;99.90;;;;;;5014204;28;20053;-83
2024/04/07 12:22:21;;;;;;;10.13;1.98;;;27.70;99.90;;;;;;5017064;28;20049;-83
2024/04/07 12:25:08;;;;;;;12.82;2.28;;;28.20;99.90;;;;;;5000997;28;20049;-83
2024/04/07 12:27:56;;;;;;;15.15;2.63;;;27.90;99.90;;;;;;5016340;28;20052;-82
2024/04/07 12:30:44;;;;;;;7.95;1.45;;;28.50;99.90;;;;;;5010156;28;20046;-83
2024/04/07 12:33:33;;;;;;;11.18;2.65;;;28.60;99.90;;;;;;5023375;28;20048;-85
2024/04/07 12:36:21;;;;;;;13.38;2.00;;;28.40;99.90;;;;;;4996070;28;20054;-82
2024/04/07 12:39:08;;;;;;;11.60;2.97;;;28.30;99.90;;;;;;5010579;28;20481;-84
2024/04/07 12:41:56;;;;;;;9.13;2.05;;;27.50;99.90;;;;;;5003582;28;20041;-83
2024/04/07 12:44:42;;;;;;;12.68;3.03;;;27.40;99.90;;;;;;5000319;28;20477;-84
2024/04/07 12:47:28;;;;;;;14.52;2.25;;;27.30;99.90;;;;;;5012849;28;20568;-84
2024/04/07 12:50:15;;;;;;;12.32;2.60;;;27.40;99.90;;;;;;5000710;28;20037;-82
2024/04/07 12:53:02;;;;;;;12.32;2.40;;;27.40;99.90;;;;;;5012439;28;20052;-82
2024/04/07 12:55:48;;;;;;;11.90;2.55;;;27.00;99.90;;;;;;5013205;28;20042;-84
2024/04/07 12:58:35;;;;;;;13.80;2.85;;;26.60;99.90;;;;;;5013279;28;20045;-83
2024/04/07 13:01:22;;;;;;;9.65;2.03;;;26.10;99.90;;;;;;5001837;28;20052;-85
2024/04/07 13:04:08;;;;;;;13.10;2.60;;;26.40;99.90;;;;;;5000455;28;20141;-82
2024/04/07 13:06:54;;;;;;;13.15;2.88;;;26.50;99.90;;;;;;5006665;28;20068;-86
2024/04/07 13:09:40;;;;;;;8.75;2.17;;;26.70;99.90;;;;;;5004580;28;20516;-79
2024/04/07 13:12:28;;;;;;;14.57;2.53;;;27.00;99.90;;;;;;5023697;28;20043;-82
2024/04/07 13:15:15;;;;;;;15.70;2.45;;;27.00;99.90;;;;;;5014466;28;20090;-85
2024/04/07 13:18:02;;;;;;;10.77;2.25;;;27.60;99.90;;;;;;4993447;28;20045;-84
2024/04/07 13:20:50;;;;;;;16.27;2.25;;;28.00;99.90;;;;;;5017940;28;20038;-82
2024/04/07 13:23:37;;;;;;;15.55;2.05;;;28.00;99.90;;;;;;4998580;28;20459;-83
2024/04/07 13:26:23;;;;;;;12.57;3.13;;;28.10;99.90;;;;;;5011336;28;20064;-84
2024/04/07 13:29:10;;;;;;;14.32;2.55;;;27.70;99.90;;;;;;5012596;28;20064;-81
2024/04/07 13:31:57;;;;;;;12.40;2.17;;;27.40;99.90;;;;;;5013277;28;20045;-83
2024/04/07 13:34:44;;;;;;;10.60;2.38;;;27.40;99.90;;;;;;5013220;28;20463;-83
2024/04/07 13:37:30;;;;;;;10.13;2.30;;;28.10;99.90;;;;;;5013026;28;20186;-84
2024/04/07 13:40:17;;;;;;;9.10;1.92;;;28.60;99.90;;;;;;5014478;28;20163;-85
2024/04/07 13:43:04;;;;;;;12.00;1.90;;;29.00;99.90;;;;;;5013978;28;20048;-84
2024/04/07 13:45:51;;;;;;;15.10;2.28;;;28.70;99.90;;;;;;5014620;28;20050;-78
2024/04/07 13:48:37;;;;;;;13.18;2.17;;;28.10;99.90;;;;;;5021113;28;20576;-82
2024/04/07 13:51:26;;;;;;;15.65;2.08;;;28.00;99.90;;;;;;5004309;28;20038;-85
2024/04/07 13:54:12;;;;;;;8.77;2.55;;;28.10;99.90;;;;;;5011315;28;20052;-78
2024/04/07 13:57:00;;;;;;;18.33;3.15;;;27.30;99.90;;;;;;5021319;28;20041;-82
2024/04/07 13:59:47;;;;;;;12.15;2.78;;;27.10;99.90;;;;;;5013489;28;20049;-83
2024/04/07 14:02:33;;;;;;;10.95;2.28;;;27.20;99.90;;;;;;4999310;28;20148;-84
2024/04/07 14:05:20;;;;;;;11.70;2.92;;;27.00;99.90;;;;;;5011441;28;20041;-83
2024/04/07 14:08:09;;;;;;;13.00;2.47;;;27.90;99.90;;;;;;4997723;28;20112;-83
2024/04/07 14:10:57;;;;;;;15.38;2.90;;;28.60;99.90;;;;;;5011745;28;20051;-84
2024/04/07 14:13:46;;;;;;;15.50;2.40;;;29.00;99.90;;;;;;5011294;28;20052;-84
2024/04/07 14:16:35;;;;;;;17.15;2.50;;;28.60;99.90;;;;;;5011952;28;20072;-86
2024/04/07 14:19:23;;;;;;;15.93;2.72;;;29.60;99.90;;;;;;4997809;28;20409;-80
2024/04/07 14:22:10;;;;;;;25.65;3.42;;;30.00;99.90;;;;;;5013504;28;20580;-83
2024/04/07 14:24:56;;;;;;;10.68;2.30;;;30.80;99.90;;;;;;5018848;28;20046;-78
2024/04/07 14:27:43;;;;;;;24.02;2.97;;;30.30;99.90;;;;;;5040032;28;20089;-82
2024/04/07 14:30:31;;;;;;;15.52;2.97;;;30.30;99.90;;;;;;4997779;28;20050;-83
2024/04/07 14:33:18;;;;;;;17.40;2.42;;;30.80;99.90;;;;;;5018370;28;20471;-84
2024/04/07 14:36:05;;;;;;;13.80;3.05;;;30.40;99.90;;;;;;5015067;28;20063;-84
2024/04/07 14:38:52;;;;;;;19.08;2.63;;;30.20;99.90;;;;;;5012545;28;20052;-84